Time;durP1;ratioP1;P1;durP2;ratioP2;P2;SDS_P1;SDS_P2;PMS_P1;PMS_P2;Temp;Humidity;BMP_temperature;BMP_pressure;BME280_temperature;BME280_humidity;BME280_pressure;Samples;Min_cycle;Max_cycle;Signal;HPM_P1;HPM_P2
2023/07/14 00:01:32;;;;;;;;;;;;;;;;;;5010566;28;7942;-84
2023/07/14 00:03:58;;;;;;;;;;;;;;;;;;4995494;28;7424;-84
2023/07/14 00:06:23;;;;;;;;;;;;;;;;;;5010593;28;7447;-85
2023/07/14 00:08:49;;;;;;;;;;;;;;;;;;5010284;28;8525;-85
2023/07/14 00:11:15;;;;;;;;;;;;;;;;;;5010628;28;8526;-85
2023/07/14 00:13:41;;;;;;;;;;;;;;;;;;4994346;28;8740;-84
2023/07/14 00:16:14;;;;;;;;;;;;;;;;;;5010494;28;7391;-84
2023/07/14 00:18:40;;;;;;;;;;;;;;;;;;5011084;28;7093;-85
2023/07/14 00:21:13;;;;;;;;;;;;;;;;;;5010490;28;8793;-86
2023/07/14 00:23:39;;;;;;;;;;;;;;;;;;5020588;28;8868;-85
2023/07/14 00:26:09;;;;;;;;;;;;;;;;;;4995450;28;7038;-85
2023/07/14 00:28:34;;;;;;;;;;;;;;;;;;5009860;28;7296;-85
2023/07/14 00:31:00;;;;;;;;;;;;;;;;;;5010314;28;8472;-85
2023/07/14 00:33:25;;;;;;;;;;;;;;;;;;5010059;28;8679;-84
2023/07/14 00:35:51;;;;;;;;;;;;;;;;;;5016266;28;7278;-84
2023/07/14 00:38:17;;;;;;;;;;;;;;;;;;5008150;28;7186;-84
2023/07/14 00:40:44;;;;;;;;;;;;;;;;;;5020594;28;8096;-84
2023/07/14 00:43:30;;;;;;;;;;;;;;;;;;5006218;28;8409;-84
2023/07/14 00:45:57;;;;;;;;;;;;;;;;;;4991988;28;7513;-84
2023/07/14 00:48:25;;;;;;;;;;;;;;;;;;5000554;28;6904;-85
2023/07/14 00:51:02;;;;;;;;;;;;;;;;;;5009751;28;7237;-85
2023/07/14 00:53:31;;;;;;;;;;;;;;;;;;4993403;28;9148;-84
2023/07/14 00:56:03;;;;;;;;;;;;;;;;;;5010594;28;7110;-85
2023/07/14 00:58:30;;;;;;;;;;;;;;;;;;5009959;28;8474;-85
2023/07/14 01:01:01;;;;;;;;;;;;;;;;;;5009997;28;7179;-84
2023/07/14 01:03:27;;;;;;;;;;;;;;;;;;4993896;28;7086;-86
2023/07/14 01:05:53;;;;;;;;;;;;;;;;;;5009538;28;8704;-86
2023/07/14 01:08:21;;;;;;;;;;;;;;;;;;5009836;28;8517;-85
2023/07/14 01:10:49;;;;;;;;;;;;;;;;;;5009895;28;7226;-86
2023/07/14 01:13:16;;;;;;;;;;;;;;;;;;5009651;28;7215;-85
2023/07/14 01:15:42;;;;;;;;;;;;;;;;;;5009837;28;7106;-85
2023/07/14 01:18:09;;;;;;;;;;;;;;;;;;5009902;28;7320;-85
2023/07/14 01:20:38;;;;;;;;;;;;;;;;;;5009416;28;7294;-84
2023/07/14 01:23:25;;;;;;;;;;;;;;;;;;5011642;28;7590;-84
2023/07/14 01:26:02;;;;;;;;;;;;;;;;;;4977290;28;8396;-86
2023/07/14 01:28:28;;;;;;;;;;;;;;;;;;4993680;28;7104;-85
2023/07/14 01:30:54;;;;;;;;;;;;;;;;;;5013093;28;7459;-84
2023/07/14 01:33:20;;;;;;;;;;;;;;;;;;5012695;28;7417;-87
2023/07/14 01:35:48;;;;;;;;;;;;;;;;;;5010672;28;7221;-86
2023/07/14 01:38:15;;;;;;;;;;;;;;;;;;5013225;28;7336;-87
2023/07/14 01:40:41;;;;;;;;;;;;;;;;;;5012777;28;7257;-87
2023/07/14 01:43:09;;;;;;;;;;;;;;;;;;5012759;28;8469;-86
2023/07/14 01:45:42;;;;;;;;;;;;;;;;;;5013198;28;7101;-86
2023/07/14 01:48:12;;;;;;;;;;;;;;;;;;5012814;28;7194;-87
2023/07/14 01:50:43;;;;;;;;;;;;;;;;;;5012923;28;7335;-86
2023/07/14 01:53:15;;;;;;;;;;;;;;;;;;5012647;28;8551;-86
2023/07/14 01:55:43;;;;;;;;;;;;;;;;;;5012519;28;7500;-86
2023/07/14 01:58:15;;;;;;;;;;;;;;;;;;5012855;28;8504;-86
2023/07/14 02:00:43;;;;;;;;;;;;;;;;;;5012765;28;8769;-86
2023/07/14 02:03:13;;;;;;;;;;;;;;;;;;5012777;28;8477;-87
2023/07/14 02:05:39;;;;;;;;;;;;;;;;;;5012535;28;7185;-87
2023/07/14 02:08:06;;;;;;;;;;;;;;;;;;5012398;28;8517;-86
2023/07/14 02:10:33;;;;;;;;;;;;;;;;;;5012226;28;8484;-87
2023/07/14 02:13:01;;;;;;;;;;;;;;;;;;5012259;28;8406;-87
2023/07/14 02:15:30;;;;;;;;;;;;;;;;;;5012428;28;8506;-86
2023/07/14 02:17:55;;;;;;;;;;;;;;;;;;5014864;28;8455;-86
2023/07/14 02:20:30;;;;;;;;;;;;;;;;;;5015623;28;8482;-86
2023/07/14 02:22:59;;;;;;;;;;;;;;;;;;5004359;28;7123;-87
2023/07/14 02:25:27;;;;;;;;;;;;;;;;;;4984410;28;7106;-86
2023/07/14 02:27:53;;;;;;;;;;;;;;;;;;5015719;28;8859;-85
2023/07/14 02:30:21;;;;;;;;;;;;;;;;;;5016183;28;7358;-85
2023/07/14 02:33:01;;;;;;;;;;;;;;;;;;5015858;28;7235;-85
2023/07/14 02:35:33;;;;;;;;;;;;;;;;;;5015216;28;7463;-86
2023/07/14 02:38:03;;;;;;;;;;;;;;;;;;5015431;28;7323;-85
2023/07/14 02:40:43;;;;;;;;;;;;;;;;;;4995801;28;7132;-85
2023/07/14 02:43:11;;;;;;;;;;;;;;;;;;4996425;28;6908;-85
2023/07/14 02:46:03;;;;;;;;;;;;;;;;;;5012055;28;6918;-85
2023/07/14 02:48:28;;;;;;;;;;;;;;;;;;4957056;28;7343;-85
2023/07/14 02:50:54;;;;;;;;;;;;;;;;;;4995823;28;7465;-85
2023/07/14 02:53:19;;;;;;;;;;;;;;;;;;5008617;28;7318;-86
2023/07/14 02:55:45;;;;;;;;;;;;;;;;;;4992306;28;9942;-85
2023/07/14 02:58:11;;;;;;;;;;;;;;;;;;4992477;28;7101;-85
2023/07/14 03:00:36;;;;;;;;;;;;;;;;;;5003069;28;8300;-86
2023/07/14 03:03:02;;;;;;;;;;;;;;;;;;5006261;28;8553;-85
2023/07/14 03:05:28;;;;;;;;;;;;;;;;;;5004328;28;8766;-85
2023/07/14 03:07:55;;;;;;;;;;;;;;;;;;4992160;28;8512;-86
2023/07/14 03:10:20;;;;;;;;;;;;;;;;;;5002683;28;7304;-85
2023/07/14 03:12:46;;;;;;;;;;;;;;;;;;5007165;28;6910;-85
2023/07/14 03:15:11;;;;;;;;;;;;;;;;;;4992548;28;7140;-86
2023/07/14 03:17:37;;;;;;;;;;;;;;;;;;4991823;28;7127;-86
2023/07/14 03:20:04;;;;;;;;;;;;;;;;;;4991935;28;7344;-86
2023/07/14 03:22:30;;;;;;;;;;;;;;;;;;4998535;28;8779;-86
2023/07/14 03:24:58;;;;;;;;;;;;;;;;;;5008162;28;7351;-86
2023/07/14 03:27:24;;;;;;;;;;;;;;;;;;5007971;28;8949;-85
2023/07/14 03:29:49;;;;;;;;;;;;;;;;;;5004144;28;7445;-86
2023/07/14 03:32:15;;;;;;;;;;;;;;;;;;4994910;28;7240;-85
2023/07/14 03:34:40;;;;;;;;;;;;;;;;;;5011414;28;8815;-87
2023/07/14 03:37:06;;;;;;;;;;;;;;;;;;5011094;28;7118;-85
2023/07/14 03:39:31;;;;;;;;;;;;;;;;;;5007842;28;7326;-86
2023/07/14 03:41:58;;;;;;;;;;;;;;;;;;5016774;28;8781;-84
2023/07/14 03:44:25;;;;;;;;;;;;;;;;;;5007939;28;7543;-85
2023/07/14 03:46:51;;;;;;;;;;;;;;;;;;5020945;28;7131;-86
2023/07/14 03:49:16;;;;;;;;;;;;;;;;;;5009287;28;8582;-86
2023/07/14 03:51:43;;;;;;;;;;;;;;;;;;5012157;28;8525;-86
2023/07/14 03:54:10;;;;;;;;;;;;;;;;;;5014154;28;8785;-86
2023/07/14 03:56:36;;;;;;;;;;;;;;;;;;5013945;28;8532;-86
2023/07/14 03:59:02;;;;;;;;;;;;;;;;;;4997368;28;8443;-86
2023/07/14 04:01:27;;;;;;;;;;;;;;;;;;5002754;28;8511;-86
2023/07/14 04:03:54;;;;;;;;;;;;;;;;;;4997562;28;7149;-85
2023/07/14 04:06:21;;;;;;;;;;;;;;;;;;4997469;28;8685;-85
2023/07/14 04:08:50;;;;;;;;;;;;;;;;;;4997794;28;7445;-84
2023/07/14 04:11:15;;;;;;;;;;;;;;;;;;4997337;28;7136;-84
2023/07/14 04:13:41;;;;;;;;;;;;;;;;;;4997283;28;8535;-84
2023/07/14 04:16:09;;;;;;;;;;;;;;;;;;5013761;28;8609;-83
2023/07/14 04:18:36;;;;;;;;;;;;;;;;;;5013930;28;8532;-83
2023/07/14 04:21:03;;;;;;;;;;;;;;;;;;5013610;28;9334;-84
2023/07/14 04:23:28;;;;;;;;;;;;;;;;;;5009887;28;7245;-84
2023/07/14 04:25:54;;;;;;;;;;;;;;;;;;5010311;28;8470;-85
2023/07/14 04:28:20;;;;;;;;;;;;;;;;;;5022580;28;7252;-83
2023/07/14 04:30:56;;;;;;;;;;;;;;;;;;4997292;28;8516;-84
2023/07/14 04:33:22;;;;;;;;;;;;;;;;;;4997216;28;7102;-83
2023/07/14 04:35:51;;;;;;;;;;;;;;;;;;4996796;28;8428;-83
2023/07/14 04:38:16;;;;;;;;;;;;;;;;;;4996976;28;8888;-85
2023/07/14 04:40:42;;;;;;;;;;;;;;;;;;5012645;28;8800;-85
2023/07/14 04:43:07;;;;;;;;;;;;;;;;;;5012466;28;7484;-86
2023/07/14 04:45:40;;;;;;;;;;;;;;;;;;5010601;28;7113;-84
2023/07/14 04:48:12;;;;;;;;;;;;;;;;;;5013073;28;7129;-86
2023/07/14 04:50:38;;;;;;;;;;;;;;;;;;5013128;28;7230;-86
2023/07/14 04:53:07;;;;;;;;;;;;;;;;;;5012745;28;7224;-81
2023/07/14 04:55:37;;;;;;;;;;;;;;;;;;5012727;28;7245;-81
2023/07/14 04:58:04;;;;;;;;;;;;;;;;;;4976579;28;7164;-83
2023/07/14 05:00:31;;;;;;;;;;;;;;;;;;4992771;28;9267;-82
2023/07/14 05:02:57;;;;;;;;;;;;;;;;;;5008705;28;7445;-83
2023/07/14 05:05:24;;;;;;;;;;;;;;;;;;5008938;28;7129;-84
2023/07/14 05:07:52;;;;;;;;;;;;;;;;;;5008823;28;7788;-82
2023/07/14 05:10:19;;;;;;;;;;;;;;;;;;5009024;28;7484;-84
2023/07/14 05:12:45;;;;;;;;;;;;;;;;;;5008704;28;8854;-82
2023/07/14 05:15:11;;;;;;;;;;;;;;;;;;5008120;28;8657;-84
2023/07/14 05:17:41;;;;;;;;;;;;;;;;;;5017772;28;8755;-84
2023/07/14 05:20:10;;;;;;;;;;;;;;;;;;5010676;28;7142;-82
2023/07/14 05:22:37;;;;;;;;;;;;;;;;;;5007162;28;8558;-83
2023/07/14 05:25:03;;;;;;;;;;;;;;;;;;4992514;28;8773;-83
2023/07/14 05:27:29;;;;;;;;;;;;;;;;;;5008387;28;7301;-83
2023/07/14 05:29:55;;;;;;;;;;;;;;;;;;5008740;28;8822;-85
2023/07/14 05:32:21;;;;;;;;;;;;;;;;;;5008781;28;8541;-85
2023/07/14 05:34:48;;;;;;;;;;;;;;;;;;5008876;28;8499;-85
2023/07/14 05:37:14;;;;;;;;;;;;;;;;;;5008438;28;7270;-84
2023/07/14 05:39:39;;;;;;;;;;;;;;;;;;5008381;28;7407;-84
2023/07/14 05:42:05;;;;;;;;;;;;;;;;;;5008724;28;7163;-83
2023/07/14 05:44:30;;;;;;;;;;;;;;;;;;5008774;28;7119;-84
2023/07/14 05:46:56;;;;;;;;;;;;;;;;;;5008486;28;8598;-85
2023/07/14 05:49:22;;;;;;;;;;;;;;;;;;5008571;28;7317;-84
2023/07/14 05:51:47;;;;;;;;;;;;;;;;;;5008929;28;8731;-85
2023/07/14 05:54:12;;;;;;;;;;;;;;;;;;5012692;28;8811;-84
2023/07/14 05:56:38;;;;;;;;;;;;;;;;;;5010138;28;8513;-82
2023/07/14 05:59:03;;;;;;;;;;;;;;;;;;5002595;28;8650;-83
2023/07/14 06:01:29;;;;;;;;;;;;;;;;;;5007200;28;7250;-82
2023/07/14 06:03:54;;;;;;;;;;;;;;;;;;5014286;28;8634;-81
2023/07/14 06:06:20;;;;;;;;;;;;;;;;;;5015294;28;8903;-83
2023/07/14 06:08:45;;;;;;;;;;;;;;;;;;5013929;28;8593;-82
2023/07/14 06:11:11;;;;;;;;;;;;;;;;;;5024338;28;8544;-83
2023/07/14 06:13:36;;;;;;;;;;;;;;;;;;5013837;28;8629;-82
2023/07/14 06:16:02;;;;;;;;;;;;;;;;;;4995972;28;7299;-82
2023/07/14 06:18:27;;;;;;;;;;;;;;;;;;5012722;28;8764;-84
2023/07/14 06:20:53;;;;;;;;;;;;;;;;;;5011841;28;8666;-81
2023/07/14 06:23:19;;;;;;;;;;;;;;;;;;4979162;28;7131;-83
2023/07/14 06:25:44;;;;;;;;;;;;;;;;;;5011645;28;7241;-80
2023/07/14 06:28:10;;;;;;;;;;;;;;;;;;5011413;28;9512;-84
2023/07/14 06:30:37;;;;;;;;;;;;;;;;;;5011471;28;7244;-83
2023/07/14 06:33:03;;;;;;;;;;;;;;;;;;5011653;28;8949;-82
2023/07/14 06:35:28;;;;;;;;;;;;;;;;;;5020038;28;8680;-86
2023/07/14 06:37:57;;;;;;;;;;;;;;;;;;4996271;28;7198;-85
2023/07/14 06:40:24;;;;;;;;;;;;;;;;;;5012614;28;8483;-85
2023/07/14 06:42:49;;;;;;;;;;;;;;;;;;5016894;28;8630;-83
2023/07/14 06:45:15;;;;;;;;;;;;;;;;;;5001422;28;7282;-86
2023/07/14 06:47:40;;;;;;;;;;;;;;;;;;5013194;28;8518;-82
2023/07/14 06:50:06;;;;;;;;;;;;;;;;;;5000264;28;7252;-83
2023/07/14 06:52:32;;;;;;;;;;;;;;;;;;5014997;28;9537;-87
2023/07/14 06:54:57;;;;;;;;;;;;;;;;;;5011515;28;8963;-83
2023/07/14 06:57:23;;;;;;;;;;;;;;;;;;5018266;28;7342;-86
2023/07/14 06:59:48;;;;;;;;;;;;;;;;;;5000106;28;7132;-85
2023/07/14 07:02:14;;;;;;;;;;;;;;;;;;5010574;28;7334;-83
2023/07/14 07:04:41;;;;;;;;;;;;;;;;;;5010469;28;7350;-86
2023/07/14 07:07:07;;;;;;;;;;;;;;;;;;5010900;28;7248;-82
2023/07/14 07:09:32;;;;;;;;;;;;;;;;;;5010959;28;8880;-81
2023/07/14 07:11:58;;;;;;;;;;;;;;;;;;5010205;28;7233;-83
2023/07/14 07:14:23;;;;;;;;;;;;;;;;;;5009859;28;7326;-83
2023/07/14 07:16:49;;;;;;;;;;;;;;;;;;5010240;28;9089;-82
2023/07/14 07:19:16;;;;;;;;;;;;;;;;;;5010641;28;8700;-83
2023/07/14 07:21:41;;;;;;;;;;;;;;;;;;5010457;28;8961;-83
2023/07/14 07:24:08;;;;;;;;;;;;;;;;;;5009609;28;7303;-84
2023/07/14 07:26:33;;;;;;;;;;;;;;;;;;5009875;28;8912;-87
2023/07/14 07:28:59;;;;;;;;;;;;;;;;;;5010533;28;7227;-84
2023/07/14 07:31:25;;;;;;;;;;;;;;;;;;5010234;28;7305;-86
2023/07/14 07:33:51;;;;;;;;;;;;;;;;;;5010137;28;8523;-87
2023/07/14 07:36:17;;;;;;;;;;;;;;;;;;5009647;28;8864;-85
2023/07/14 07:38:48;;;;;;;;;;;;;;;;;;5004243;28;7299;-82
2023/07/14 07:41:22;;;;;;;;;;;;;;;;;;4993852;28;9007;-81
2023/07/14 07:43:48;;;;;;;;;;;;;;;;;;4994066;28;8812;-82
2023/07/14 07:46:14;;;;;;;;;;;;;;;;;;4977930;28;8508;-83
2023/07/14 07:48:42;;;;;;;;;;;;;;;;;;4986027;28;8532;-81
2023/07/14 07:51:08;;;;;;;;;;;;;;;;;;4993413;28;8876;-82
2023/07/14 07:53:34;;;;;;;;;;;;;;;;;;4988592;28;7243;-82
2023/07/14 07:56:01;;;;;;;;;;;;;;;;;;4977941;28;8669;-83
2023/07/14 07:58:27;;;;;;;;;;;;;;;;;;4990895;28;7120;-83
2023/07/14 08:00:59;;;;;;;;;;;;;;;;;;5010290;28;8742;-83
2023/07/14 08:03:25;;;;;;;;;;;;;;;;;;5009526;28;9194;-82
2023/07/14 08:05:50;;;;;;;;;;;;;;;;;;4990085;28;8513;-82
2023/07/14 08:08:16;;;;;;;;;;;;;;;;;;4989887;28;8424;-83
2023/07/14 08:10:45;;;;;;;;;;;;;;;;;;4990317;28;8551;-82
2023/07/14 08:13:12;;;;;;;;;;;;;;;;;;4990365;28;8586;-84
2023/07/14 08:15:38;;;;;;;;;;;;;;;;;;5007673;28;7337;-81
2023/07/14 08:18:06;;;;;;;;;;;;;;;;;;4996802;28;7259;-82
2023/07/14 08:20:38;;;;;;;;;;;;;;;;;;5000487;28;7156;-81
2023/07/14 08:23:05;;;;;;;;;;;;;;;;;;4991735;28;8674;-87
2023/07/14 08:25:31;;;;;;;;;;;;;;;;;;5005614;28;7153;-83
2023/07/14 08:27:56;;;;;;;;;;;;;;;;;;5008992;28;8577;-85
2023/07/14 08:30:21;;;;;;;;;;;;;;;;;;5009084;28;8598;-82
2023/07/14 08:32:49;;;;;;;;;;;;;;;;;;5009205;28;8896;-85
2023/07/14 08:35:16;;;;;;;;;;;;;;;;;;5009593;28;7356;-84
2023/07/14 08:37:41;;;;;;;;;;;;;;;;;;5008988;28;7369;-83
2023/07/14 08:40:10;;;;;;;;;;;;;;;;;;5009137;28;9812;-86
2023/07/14 08:42:46;;;;;;;;;;;;;;;;;;5009522;28;7766;-82
2023/07/14 08:45:23;;;;;;;;;;;;;;;;;;5009154;28;8719;-83
2023/07/14 08:48:07;;;;;;;;;;;;;;;;;;5008889;28;7258;-86
2023/07/14 08:50:36;;;;;;;;;;;;;;;;;;5009009;28;8471;-83
2023/07/14 08:53:06;;;;;;;;;;;;;;;;;;5008667;28;7342;-84
2023/07/14 08:55:37;;;;;;;;;;;;;;;;;;5009118;28;8570;-87
2023/07/14 08:58:13;;;;;;;;;;;;;;;;;;5000793;28;8675;-82
2023/07/14 09:00:43;;;;;;;;;;;;;;;;;;4989304;28;6946;-82
2023/07/14 09:03:17;;;;;;;;;;;;;;;;;;4989415;28;8878;-81
2023/07/14 09:05:53;;;;;;;;;;;;;;;;;;4989006;28;8810;-81
2023/07/14 09:08:25;;;;;;;;;;;;;;;;;;4987691;28;7332;-81
2023/07/14 09:11:01;;;;;;;;;;;;;;;;;;4988968;28;8719;-82
2023/07/14 09:13:36;;;;;;;;;;;;;;;;;;4989653;28;8541;-83
2023/07/14 09:16:03;;;;;;;;;;;;;;;;;;4990036;28;8601;-83
2023/07/14 09:18:32;;;;;;;;;;;;;;;;;;4988896;28;7135;-83
2023/07/14 09:21:13;;;;;;;;;;;;;;;;;;4988948;28;8511;-81
2023/07/14 09:24:08;;;;;;;;;;;;;;;;;;4988504;28;8527;-83
2023/07/14 09:26:38;;;;;;;;;;;;;;;;;;4994468;28;8542;-82
2023/07/14 09:29:11;;;;;;;;;;;;;;;;;;4993003;28;7326;-80
2023/07/14 09:31:44;;;;;;;;;;;;;;;;;;4992971;28;9509;-83
2023/07/14 09:34:28;;;;;;;;;;;;;;;;;;4993691;28;6942;-84
2023/07/14 09:36:54;;;;;;;;;;;;;;;;;;4993130;28;8510;-82
2023/07/14 09:39:32;;;;;;;;;;;;;;;;;;4992599;28;8527;-82
2023/07/14 09:41:59;;;;;;;;;;;;;;;;;;4992882;28;7484;-80
2023/07/14 09:44:25;;;;;;;;;;;;;;;;;;4992875;28;7314;-84
2023/07/14 09:46:51;;;;;;;;;;;;;;;;;;4998588;28;7280;-81
2023/07/14 09:49:23;;;;;;;;;;;;;;;;;;4999886;28;8613;-82
2023/07/14 09:52:08;;;;;;;;;;;;;;;;;;4994670;28;8574;-84
2023/07/14 09:54:34;;;;;;;;;;;;;;;;;;5024410;28;8541;-82
2023/07/14 09:57:02;;;;;;;;;;;;;;;;;;5003614;28;7274;-84
2023/07/14 09:59:28;;;;;;;;;;;;;;;;;;5008556;28;8736;-86
2023/07/14 10:01:56;;;;;;;;;;;;;;;;;;5006202;28;8647;-86
2023/07/14 10:04:27;;;;;;;;;;;;;;;;;;5014500;28;8535;-84
2023/07/14 10:06:53;;;;;;;;;;;;;;;;;;5031041;28;7259;-86
2023/07/14 10:09:22;;;;;;;;;;;;;;;;;;5002208;28;8934;-84
2023/07/14 10:11:50;;;;;;;;;;;;;;;;;;5029543;28;7273;-83
2023/07/14 10:14:21;;;;;;;;;;;;;;;;;;4998496;28;7292;-85
2023/07/14 10:16:48;;;;;;;;;;;;;;;;;;5014827;28;8505;-86
2023/07/14 10:19:18;;;;;;;;;;;;;;;;;;4998602;28;7353;-85
2023/07/14 10:21:57;;;;;;;;;;;;;;;;;;4998927;28;8755;-86
2023/07/14 10:24:24;;;;;;;;;;;;;;;;;;4998575;28;8813;-85
2023/07/14 10:26:50;;;;;;;;;;;;;;;;;;4998719;28;7526;-84
2023/07/14 10:29:18;;;;;;;;;;;;;;;;;;5014903;28;7076;-84
2023/07/14 10:31:48;;;;;;;;;;;;;;;;;;4998620;28;7291;-83
2023/07/14 10:34:14;;;;;;;;;;;;;;;;;;4998390;28;7289;-84
2023/07/14 10:36:43;;;;;;;;;;;;;;;;;;5015028;28;8773;-86
2023/07/14 10:39:29;;;;;;;;;;;;;;;;;;4997529;28;8986;-80
2023/07/14 10:41:56;;;;;;;;;;;;;;;;;;4998412;28;8522;-90
2023/07/14 10:44:33;;;;;;;;;;;;;;;;;;4980432;28;7274;-88
2023/07/14 10:47:03;;;;;;;;;;;;;;;;;;4996138;28;8566;-86
2023/07/14 10:49:34;;;;;;;;;;;;;;;;;;5014796;28;7377;-85
2023/07/14 10:52:05;;;;;;;;;;;;;;;;;;5026266;28;7084;-82
2023/07/14 10:54:42;;;;;;;;;;;;;;;;;;5000031;28;7356;-82
2023/07/14 10:57:14;;;;;;;;;;;;;;;;;;5011018;28;7148;-81
2023/07/14 10:59:50;;;;;;;;;;;;;;;;;;5011431;28;8594;-84
2023/07/14 11:02:41;;;;;;;;;;;;;;;;;;5010946;28;9476;-82
2023/07/14 11:05:19;;;;;;;;;;;;;;;;;;5010983;28;8838;-84
2023/07/14 11:07:44;;;;;;;;;;;;;;;;;;5010870;28;8466;-84
2023/07/14 11:10:23;;;;;;;;;;;;;;;;;;5010423;28;8848;-84
2023/07/14 11:12:52;;;;;;;;;;;;;;;;;;5010958;28;9164;-85
2023/07/14 11:15:23;;;;;;;;;;;;;;;;;;5011067;28;7153;-84
2023/07/14 11:17:49;;;;;;;;;;;;;;;;;;4999070;28;8503;-83
2023/07/14 11:20:18;;;;;;;;;;;;;;;;;;4990606;28;6932;-85
2023/07/14 11:23:03;;;;;;;;;;;;;;;;;;4991097;28;7360;-85
2023/07/14 11:25:47;;;;;;;;;;;;;;;;;;4995200;28;8575;-83
2023/07/14 11:28:25;;;;;;;;;;;;;;;;;;5007962;28;8490;-84
2023/07/14 11:30:55;;;;;;;;;;;;;;;;;;4994044;28;7269;-83
2023/07/14 11:33:32;;;;;;;;;;;;;;;;;;5010221;28;7151;-85
2023/07/14 11:36:02;;;;;;;;;;;;;;;;;;4993835;28;8935;-83
2023/07/14 11:38:35;;;;;;;;;;;;;;;;;;5010117;28;7202;-86
2023/07/14 11:41:01;;;;;;;;;;;;;;;;;;5008998;28;7243;-84
2023/07/14 11:43:29;;;;;;;;;;;;;;;;;;5006340;28;8576;-84
2023/07/14 11:46:04;;;;;;;;;;;;;;;;;;5006652;28;8545;-85
2023/07/14 11:48:38;;;;;;;;;;;;;;;;;;5009647;28;7352;-87
2023/07/14 11:51:05;;;;;;;;;;;;;;;;;;5009354;28;7135;-85
2023/07/14 11:53:34;;;;;;;;;;;;;;;;;;5009116;28;8750;-85
2023/07/14 11:56:21;;;;;;;;;;;;;;;;;;5009354;28;8597;-85
2023/07/14 11:58:50;;;;;;;;;;;;;;;;;;5007969;28;7169;-82
2023/07/14 12:01:28;;;;;;;;;;;;;;;;;;5009336;28;7302;-85
2023/07/14 12:04:13;;;;;;;;;;;;;;;;;;5008764;28;8348;-86
2023/07/14 12:06:48;;;;;;;;;;;;;;;;;;5006567;28;8570;-82
2023/07/14 12:09:16;;;;;;;;;;;;;;;;;;5009163;28;7210;-84
2023/07/14 12:11:42;;;;;;;;;;;;;;;;;;5009654;28;9360;-83
2023/07/14 12:14:26;;;;;;;;;;;;;;;;;;5009336;28;7105;-83
2023/07/14 12:16:51;;;;;;;;;;;;;;;;;;5009347;28;7295;-83
2023/07/14 12:19:26;;;;;;;;;;;;;;;;;;5010152;28;8672;-81
2023/07/14 12:22:09;;;;;;;;;;;;;;;;;;5009381;28;8846;-83
2023/07/14 12:24:40;;;;;;;;;;;;;;;;;;5009933;28;8610;-83
2023/07/14 12:27:17;;;;;;;;;;;;;;;;;;4976930;28;8590;-77
2023/07/14 12:29:43;;;;;;;;;;;;;;;;;;5009170;28;7282;-78
2023/07/14 12:32:17;;;;;;;;;;;;;;;;;;5009484;28;7460;-80
2023/07/14 12:34:44;;;;;;;;;;;;;;;;;;5008957;28;7322;-78
2023/07/14 12:37:18;;;;;;;;;;;;;;;;;;5009397;28;8493;-79
2023/07/14 12:39:48;;;;;;;;;;;;;;;;;;5008922;28;8986;-78
2023/07/14 12:42:15;;;;;;;;;;;;;;;;;;5008174;28;8622;-77
2023/07/14 12:44:40;;;;;;;;;;;;;;;;;;4989091;28;8760;-78
2023/07/14 12:47:13;;;;;;;;;;;;;;;;;;4979592;28;6943;-78
2023/07/14 12:49:46;;;;;;;;;;;;;;;;;;5008899;28;8504;-79
2023/07/14 12:52:27;;;;;;;;;;;;;;;;;;5002512;28;8636;-78
2023/07/14 12:54:57;;;;;;;;;;;;;;;;;;4969775;28;8677;-78
2023/07/14 12:57:22;;;;;;;;;;;;;;;;;;4958152;28;7438;-80
2023/07/14 12:59:49;;;;;;;;;;;;;;;;;;4973364;28;8893;-79
2023/07/14 13:02:15;;;;;;;;;;;;;;;;;;4955980;28;8914;-77
2023/07/14 13:04:42;;;;;;;;;;;;;;;;;;4953377;28;9505;-81
2023/07/14 13:07:14;;;;;;;;;;;;;;;;;;4953741;28;8557;-80
2023/07/14 13:09:42;;;;;;;;;;;;;;;;;;4967109;28;8427;-79
2023/07/14 13:12:11;;;;;;;;;;;;;;;;;;4972582;28;7292;-78
2023/07/14 13:14:47;;;;;;;;;;;;;;;;;;4972909;28;7224;-78
2023/07/14 13:17:22;;;;;;;;;;;;;;;;;;4972921;28;7267;-79
2023/07/14 13:19:48;;;;;;;;;;;;;;;;;;4972673;28;8514;-78
2023/07/14 13:22:17;;;;;;;;;;;;;;;;;;4972584;28;8520;-78
2023/07/14 13:24:54;;;;;;;;;;;;;;;;;;4988964;28;8499;-78
2023/07/14 13:27:20;;;;;;;;;;;;;;;;;;4972816;28;8830;-79
2023/07/14 13:29:56;;;;;;;;;;;;;;;;;;4972931;28;8574;-78
2023/07/14 13:32:24;;;;;;;;;;;;;;;;;;4973953;28;7063;-78
2023/07/14 13:34:59;;;;;;;;;;;;;;;;;;4972851;28;8626;-79
2023/07/14 13:37:27;;;;;;;;;;;;;;;;;;4972791;28;7147;-79
2023/07/14 13:39:58;;;;;;;;;;;;;;;;;;4972436;28;8611;-78
2023/07/14 13:42:33;;;;;;;;;;;;;;;;;;4972527;28;7360;-78
2023/07/14 13:45:00;;;;;;;;;;;;;;;;;;4972590;28;8521;-77
2023/07/14 13:47:45;;;;;;;;;;;;;;;;;;4972541;28;7284;-77
2023/07/14 13:50:11;;;;;;;;;;;;;;;;;;4973423;28;8797;-80
2023/07/14 13:52:39;;;;;;;;;;;;;;;;;;4982525;28;7258;-88
2023/07/14 13:55:13;;;;;;;;;;;;;;;;;;4994543;28;7138;-88
2023/07/14 13:57:56;;;;;;;;;;;;;;;;;;4981609;28;8696;-82
2023/07/14 14:00:24;;;;;;;;;;;;;;;;;;4991771;28;7159;-86
2023/07/14 14:02:58;;;;;;;;;;;;;;;;;;4991252;28;7255;-85
2023/07/14 14:05:26;;;;;;;;;;;;;;;;;;4991267;28;8866;-87
2023/07/14 14:07:52;;;;;;;;;;;;;;;;;;4990465;28;8539;-86
2023/07/14 14:10:23;;;;;;;;;;;;;;;;;;4989166;28;8642;-85
2023/07/14 14:12:50;;;;;;;;;;;;;;;;;;4989327;28;7323;-88
2023/07/14 14:15:17;;;;;;;;;;;;;;;;;;4992579;28;7205;-86
2023/07/14 14:17:48;;;;;;;;;;;;;;;;;;4992201;28;7279;-84
2023/07/14 14:20:19;;;;;;;;;;;;;;;;;;4993363;28;7516;-85
2023/07/14 14:22:46;;;;;;;;;;;;;;;;;;4992946;28;6973;-87
2023/07/14 14:25:17;;;;;;;;;;;;;;;;;;4992523;28;8562;-86
2023/07/14 14:27:43;;;;;;;;;;;;;;;;;;4993769;28;8587;-85
2023/07/14 14:30:09;;;;;;;;;;;;;;;;;;4992183;28;8808;-85
2023/07/14 14:32:37;;;;;;;;;;;;;;;;;;4992201;28;7129;-86
2023/07/14 14:35:20;;;;;;;;;;;;;;;;;;4991820;28;9031;-86
2023/07/14 14:37:46;;;;;;;;;;;;;;;;;;4992087;28;8837;-86
2023/07/14 14:40:12;;;;;;;;;;;;;;;;;;4992044;28;7135;-86
2023/07/14 14:42:38;;;;;;;;;;;;;;;;;;4991946;28;8755;-86
2023/07/14 14:45:03;;;;;;;;;;;;;;;;;;4991534;28;8824;-85
2023/07/14 14:47:29;;;;;;;;;;;;;;;;;;4991864;28;8529;-88
2023/07/14 14:49:54;;;;;;;;;;;;;;;;;;4976662;28;7309;-87
2023/07/14 14:52:20;;;;;;;;;;;;;;;;;;4988343;28;6927;-85
2023/07/14 14:54:45;;;;;;;;;;;;;;;;;;4956025;28;7315;-86
2023/07/14 14:57:15;;;;;;;;;;;;;;;;;;4956412;28;7103;-86
2023/07/14 14:59:41;;;;;;;;;;;;;;;;;;4956229;28;8703;-85
2023/07/14 15:02:16;;;;;;;;;;;;;;;;;;4955930;28;7380;-87
2023/07/14 15:04:42;;;;;;;;;;;;;;;;;;4956401;28;8516;-85
2023/07/14 15:07:12;;;;;;;;;;;;;;;;;;4967405;28;8619;-84
2023/07/14 15:09:40;;;;;;;;;;;;;;;;;;4988066;28;8867;-90
2023/07/14 15:12:12;;;;;;;;;;;;;;;;;;4993487;28;7100;-85
2023/07/14 15:14:38;;;;;;;;;;;;;;;;;;4993369;28;9092;-84
2023/07/14 15:17:24;;;;;;;;;;;;;;;;;;4993351;28;7557;-85
2023/07/14 15:19:50;;;;;;;;;;;;;;;;;;4995714;28;8824;-89
2023/07/14 15:22:19;;;;;;;;;;;;;;;;;;4996401;28;8599;-85
2023/07/14 15:24:45;;;;;;;;;;;;;;;;;;4993115;28;7245;-84
2023/07/14 15:27:16;;;;;;;;;;;;;;;;;;4987231;28;7301;-85
2023/07/14 15:29:43;;;;;;;;;;;;;;;;;;4992822;28;8896;-83
2023/07/14 15:32:10;;;;;;;;;;;;;;;;;;4976588;28;9570;-85
2023/07/14 15:34:36;;;;;;;;;;;;;;;;;;4976531;28;7264;-85
2023/07/14 15:37:01;;;;;;;;;;;;;;;;;;4976427;28;7262;-81
2023/07/14 15:39:27;;;;;;;;;;;;;;;;;;4975978;28;8618;-83
2023/07/14 15:41:55;;;;;;;;;;;;;;;;;;5003857;28;7391;-84
2023/07/14 15:44:21;;;;;;;;;;;;;;;;;;4991977;28;8085;-84
2023/07/14 15:46:47;;;;;;;;;;;;;;;;;;4992327;28;8781;-85
2023/07/14 15:49:14;;;;;;;;;;;;;;;;;;4982438;28;8961;-86
2023/07/14 15:51:42;;;;;;;;;;;;;;;;;;4972239;28;8973;-84
2023/07/14 15:54:17;;;;;;;;;;;;;;;;;;4993425;28;9085;-85
2023/07/14 15:56:43;;;;;;;;;;;;;;;;;;4993639;28;8529;-84
2023/07/14 15:59:09;;;;;;;;;;;;;;;;;;4996117;28;8512;-85
2023/07/14 16:01:34;;;;;;;;;;;;;;;;;;4996011;28;8525;-84
2023/07/14 16:04:01;;;;;;;;;;;;;;;;;;4996335;28;8505;-82
2023/07/14 16:06:27;;;;;;;;;;;;;;;;;;4996487;28;8608;-84
2023/07/14 16:08:54;;;;;;;;;;;;;;;;;;4984909;28;8950;-83
2023/07/14 16:11:25;;;;;;;;;;;;;;;;;;4994450;28;7119;-83
2023/07/14 16:13:51;;;;;;;;;;;;;;;;;;4994016;28;8568;-85
2023/07/14 16:16:16;;;;;;;;;;;;;;;;;;5030005;28;7280;-84
2023/07/14 16:18:43;;;;;;;;;;;;;;;;;;5030200;28;8599;-84
2023/07/14 16:21:29;;;;;;;;;;;;;;;;;;5030126;28;9378;-84
2023/07/14 16:23:56;;;;;;;;;;;;;;;;;;4996673;28;8468;-86
2023/07/14 16:26:23;;;;;;;;;;;;;;;;;;5016142;28;7395;-84
2023/07/14 16:28:49;;;;;;;;;;;;;;;;;;5029728;28;8574;-85
2023/07/14 16:31:16;;;;;;;;;;;;;;;;;;5021430;28;9507;-85
2023/07/14 16:33:43;;;;;;;;;;;;;;;;;;4993887;28;8539;-84
2023/07/14 16:36:18;;;;;;;;;;;;;;;;;;4993390;28;7280;-84
2023/07/14 16:38:44;;;;;;;;;;;;;;;;;;4993647;28;7372;-84
2023/07/14 16:41:10;;;;;;;;;;;;;;;;;;4994065;28;7155;-84
2023/07/14 16:43:36;;;;;;;;;;;;;;;;;;5007927;28;7313;-84
2023/07/14 16:46:01;;;;;;;;;;;;;;;;;;5029468;28;8458;-84
2023/07/14 16:48:27;;;;;;;;;;;;;;;;;;5029897;28;8800;-85
2023/07/14 16:50:53;;;;;;;;;;;;;;;;;;5029514;28;8822;-85
2023/07/14 16:53:20;;;;;;;;;;;;;;;;;;5029305;28;7424;-85
2023/07/14 16:55:46;;;;;;;;;;;;;;;;;;5020407;28;7287;-85
2023/07/14 16:58:18;;;;;;;;;;;;;;;;;;4994053;28;7365;-84
2023/07/14 17:00:44;;;;;;;;;;;;;;;;;;4993465;28;7290;-85
2023/07/14 17:03:18;;;;;;;;;;;;;;;;;;4996133;28;7348;-85
2023/07/14 17:05:44;;;;;;;;;;;;;;;;;;5004293;28;8564;-84
2023/07/14 17:08:21;;;;;;;;;;;;;;;;;;5011942;28;8893;-85
2023/07/14 17:10:48;;;;;;;;;;;;;;;;;;5028774;28;8447;-84
2023/07/14 17:13:16;;;;;;;;;;;;;;;;;;5028169;28;7523;-83
2023/07/14 17:15:42;;;;;;;;;;;;;;;;;;5028425;28;8580;-84